Time;durP1;ratioP1;P1;durP2;ratioP2;P2;SDS_P1;SDS_P2;PMS_P1;PMS_P2;Temp;Humidity;BMP_temperature;BMP_pressure;BME280_temperature;BME280_humidity;BME280_pressure;Samples;Min_cycle;Max_cycle;Signal;HPM_P1;HPM_P2
2022/12/03 00:01:26;;;;;;;18.13;12.27;;;;;;;1.89;88.03;102290.44;5069278;28;20028;-62
2022/12/03 00:03:52;;;;;;;20.40;13.73;;;;;;;1.67;89.05;102291.50;5068223;28;20379;-62
2022/12/03 00:06:17;;;;;;;25.65;16.13;;;;;;;1.65;89.22;102293.50;5069309;28;20044;-61
2022/12/03 00:08:42;;;;;;;22.90;16.30;;;;;;;1.97;88.14;102282.47;5067185;28;20032;-62
2022/12/03 00:11:07;;;;;;;25.98;15.68;;;;;;;1.70;88.31;102293.94;5066931;28;20091;-62
2022/12/03 00:13:33;;;;;;;26.33;16.75;;;;;;;1.60;89.63;102297.63;5069372;28;20032;-61
2022/12/03 00:15:58;;;;;;;21.00;16.98;;;;;;;1.93;88.02;102283.75;5069142;28;20027;-62
2022/12/03 00:18:23;;;;;;;22.85;13.20;;;;;;;1.67;89.00;102286.09;5066249;28;20070;-62
2022/12/03 00:20:48;;;;;;;25.13;13.50;;;;;;;1.63;89.40;102284.66;5069531;28;20040;-61
2022/12/03 00:23:14;;;;;;;24.08;18.02;;;;;;;2.06;87.65;102275.34;5068066;28;20476;-61
2022/12/03 00:25:39;;;;;;;23.65;17.60;;;;;;;2.21;86.24;102276.66;5067333;28;20036;-62
2022/12/03 00:28:04;;;;;;;19.00;13.93;;;;;;;1.81;88.44;102276.72;5066425;28;20029;-62
2022/12/03 00:30:30;;;;;;;24.60;15.98;;;;;;;1.96;88.44;102275.34;5068924;28;20017;-61
2022/12/03 00:32:55;;;;;;;23.90;17.13;;;;;;;2.00;87.59;102265.94;5068968;28;20153;-62
2022/12/03 00:35:20;;;;;;;23.38;18.88;;;;;;;1.98;87.93;102265.22;5067918;28;20357;-61
2022/12/03 00:37:45;;;;;;;22.20;15.35;;;;;;;1.94;86.84;102266.50;5063766;28;20101;-62
2022/12/03 00:40:12;;;;;;;26.17;16.88;;;;;;;1.76;88.54;102271.72;5067982;28;20029;-61
2022/12/03 00:42:37;;;;;;;27.42;21.75;;;;;;;1.98;87.57;102267.94;5067521;28;20035;-61
2022/12/03 00:45:02;;;;;;;25.75;16.55;;;;;;;1.67;89.43;102271.69;5068300;28;20016;-62
2022/12/03 00:47:28;;;;;;;20.70;14.35;;;;;;;1.68;90.04;102268.88;5066996;28;20028;-61
2022/12/03 00:49:53;;;;;;;21.30;16.83;;;;;;;2.08;87.36;102263.41;5068397;28;20116;-61
2022/12/03 00:52:18;;;;;;;23.27;13.82;;;;;;;1.66;89.23;102267.28;5067981;28;20032;-62
2022/12/03 00:54:44;;;;;;;21.90;13.80;;;;;;;1.74;89.25;102265.59;5066234;28;20471;-62
2022/12/03 00:57:09;;;;;;;26.20;16.90;;;;;;;1.61;90.08;102262.25;5067006;28;20459;-61
2022/12/03 00:59:34;;;;;;;24.40;16.25;;;;;;;1.72;89.03;102262.16;5067630;28;20482;-62
2022/12/03 01:02:00;;;;;;;25.70;16.10;;;;;;;1.75;88.40;102267.31;5067858;28;20033;-62
2022/12/03 01:04:25;;;;;;;24.25;15.35;;;;;;;1.78;88.76;102272.47;5067880;28;20463;-61
2022/12/03 01:06:50;;;;;;;26.88;17.73;;;;;;;1.55;89.58;102271.78;5065764;28;20142;-63
2022/12/03 01:09:15;;;;;;;24.23;16.20;;;;;;;1.69;89.39;102275.13;5066987;28;20021;-61
2022/12/03 01:11:41;;;;;;;23.65;16.52;;;;;;;2.03;87.54;102267.53;5068588;28;20051;-62
2022/12/03 01:14:15;;;;;;;25.20;14.20;;;;;;;1.64;89.93;102261.16;5067407;28;20115;-62
2022/12/03 01:16:41;;;;;;;27.77;19.20;;;;;;;1.50;90.98;102263.22;5063117;28;20374;-61
2022/12/03 01:19:09;;;;;;;23.30;15.50;;;;;;;1.61;90.44;102262.25;5067643;28;20108;-61
2022/12/03 01:21:35;;;;;;;25.70;20.65;;;;;;;1.86;90.62;102255.50;5066514;28;20131;-62
2022/12/03 01:24:01;;;;;;;22.65;17.17;;;;;;;1.94;88.47;102261.09;5067011;28;20043;-61
2022/12/03 01:26:27;;;;;;;16.45;12.07;;;;;;;1.71;89.51;102262.28;5066599;28;20060;-62
2022/12/03 01:28:52;;;;;;;25.70;17.05;;;;;;;1.76;89.41;102262.75;5066481;28;20056;-62
2022/12/03 01:34:02;;;;;;;17.73;13.00;;;;;;;1.93;88.10;102262.09;5067526;28;20097;-62
2022/12/03 01:36:28;;;;;;;25.30;21.98;;;;;;;2.13;88.69;102262.09;5065799;28;20430;-61
2022/12/03 01:38:53;;;;;;;27.92;15.77;;;;;;;1.80;88.80;102254.19;5066728;28;20119;-62
2022/12/03 01:41:20;;;;;;;25.27;16.55;;;;;;;1.88;88.56;102250.81;5068465;28;20025;-62
2022/12/03 01:43:45;;;;;;;24.27;18.92;;;;;;;2.15;87.80;102252.84;5066709;28;20041;-62
2022/12/03 01:46:13;;;;;;;27.52;17.02;;;;;;;1.66;90.19;102259.16;5065745;28;20457;-61
2022/12/03 01:48:38;;;;;;;23.45;20.05;;;;;;;2.02;88.12;102253.09;5066048;28;20031;-61
2022/12/03 01:51:04;;;;;;;25.40;16.92;;;;;;;1.72;89.44;102256.72;5068067;28;20033;-62
2022/12/03 01:53:29;;;;;;;22.42;13.05;;;;;;;1.93;88.01;102243.13;5067422;28;20108;-62
2022/12/03 01:55:55;;;;;;;25.83;15.73;;;;;;;1.67;89.48;102252.72;5066953;28;20040;-61
2022/12/03 01:58:25;;;;;;;22.10;13.98;;;;;;;1.77;89.85;102248.19;5066800;28;20364;-62
2022/12/03 02:00:50;;;;;;;23.05;16.88;;;;;;;1.91;89.41;102249.66;5066432;28;20036;-63
2022/12/03 02:03:25;;;;;;;19.42;12.00;;;;;;;1.69;90.78;102257.03;5066232;28;20021;-61
2022/12/03 02:05:51;;;;;;;24.05;16.25;;;;;;;1.72;89.69;102253.16;5068129;28;20052;-63
2022/12/03 02:08:33;;;;;;;29.35;21.90;;;;;;;2.12;88.38;102246.84;5070076;28;20047;-62
2022/12/03 02:11:13;;;;;;;28.08;16.65;;;;;;;1.95;89.75;102245.69;5056154;28;20066;-63
2022/12/03 02:13:39;;;;;;;28.08;16.67;;;;;;;1.64;90.29;102253.03;5071478;28;20494;-61
2022/12/03 02:16:04;;;;;;;21.33;14.27;;;;;;;1.85;88.88;102251.06;5064806;28;20021;-62
2022/12/03 02:18:30;;;;;;;28.40;16.77;;;;;;;1.74;89.61;102249.34;5058041;28;20475;-62
2022/12/03 02:21:30;;;;;;;20.45;12.80;;;;;;;1.88;90.37;102249.97;5065273;28;20028;-61
2022/12/03 02:24:21;;;;;;;25.83;16.70;;;;;;;1.57;90.47;102250.00;5018003;28;20121;-62
2022/12/03 02:26:46;;;;;;;27.08;17.83;;;;;;;1.66;91.12;102246.47;5068672;28;20067;-61
2022/12/03 02:29:12;;;;;;;28.48;18.92;;;;;;;1.50;92.17;102240.72;5069502;28;20456;-62
2022/12/03 02:31:37;;;;;;;31.73;20.02;;;;;;;1.35;93.35;102251.06;5070428;28;20375;-62
2022/12/03 02:34:06;;;;;;;22.27;14.35;;;;;;;1.92;89.61;102233.25;5069619;28;20039;-61
2022/12/03 02:36:32;;;;;;;28.48;23.40;;;;;;;2.07;89.28;102231.84;5064667;22;20049;-61
2022/12/03 02:38:57;;;;;;;27.15;20.30;;;;;;;2.13;88.94;102235.88;5009435;28;20037;-62
2022/12/03 02:44:07;;;;;;;28.13;18.75;;;;;;;1.83;89.63;102233.25;5030543;28;20079;-61
2022/12/03 02:46:33;;;;;;;29.65;19.08;;;;;;;1.54;91.53;102236.75;5016985;28;20050;-61
2022/12/03 02:48:59;;;;;;;27.08;18.42;;;;;;;1.55;91.71;102239.31;5015382;28;20411;-61
2022/12/03 02:51:25;;;;;;;26.80;20.70;;;;;;;2.12;88.73;102219.72;5030287;28;20108;-62
2022/12/03 02:53:53;;;;;;;28.52;19.15;;;;;;;1.87;88.78;102230.09;5027155;28;20095;-62
2022/12/03 02:56:22;;;;;;;28.40;17.83;;;;;;;1.77;89.91;102238.25;5013402;28;20033;-61
2022/12/03 02:58:51;;;;;;;26.42;21.15;;;;;;;1.85;90.54;102224.00;5020294;28;20493;-61
2022/12/03 03:01:16;;;;;;;28.17;18.83;;;;;;;1.45;92.54;102224.88;5028338;28;20046;-61
2022/12/03 03:03:44;;;;;;;24.35;15.40;;;;;;;1.56;91.83;102240.16;5010110;28;20361;-62
2022/12/03 03:06:09;;;;;;;25.30;22.55;;;;;;;2.21;88.84;102214.31;5013945;28;20038;-62
2022/12/03 03:08:37;;;;;;;29.60;20.27;;;;;;;1.59;91.49;102229.06;5025983;28;20056;-62
2022/12/03 03:11:03;;;;;;;28.67;19.27;;;;;;;1.68;90.56;102228.25;5022998;28;20029;-61
2022/12/03 03:13:31;;;;;;;28.13;19.95;;;;;;;1.50;91.40;102229.88;5011063;28;20037;-61
2022/12/03 03:15:57;;;;;;;30.65;27.02;;;;;;;2.24;89.61;102219.47;5007289;28;20034;-61
2022/12/03 03:18:23;;;;;;;26.63;17.13;;;;;;;1.79;89.50;102221.84;5014938;28;20109;-61
2022/12/03 03:20:48;;;;;;;24.38;18.75;;;;;;;2.03;89.04;102213.34;5028707;28;20044;-62
2022/12/03 03:23:15;;;;;;;27.05;17.75;;;;;;;1.99;88.85;102218.16;5028622;28;20109;-62
2022/12/03 03:25:44;;;;;;;29.63;20.58;;;;;;;1.61;91.29;102220.78;5022588;28;20048;-61
2022/12/03 03:28:10;;;;;;;24.63;20.42;;;;;;;1.84;90.61;102216.00;4998815;28;20133;-62
2022/12/03 03:30:38;;;;;;;29.83;20.15;;;;;;;1.51;91.81;102213.50;5029603;28;20079;-61
2022/12/03 03:33:03;;;;;;;25.08;22.27;;;;;;;2.03;89.90;102207.91;5027368;28;20037;-61
2022/12/03 03:35:29;;;;;;;30.45;20.85;;;;;;;1.53;91.44;102211.53;5015198;28;20045;-61
2022/12/03 03:37:57;;;;;;;26.48;17.50;;;;;;;1.60;92.06;102211.81;5023863;28;20030;-62
2022/12/03 03:40:23;;;;;;;28.05;18.90;;;;;;;1.74;90.20;102210.56;5029483;28;20017;-61
2022/12/03 03:42:49;;;;;;;31.48;20.58;;;;;;;1.59;90.85;102209.25;5026431;28;20078;-62
2022/12/03 03:45:14;;;;;;;22.40;14.38;;;;;;;1.88;89.46;102206.63;5020223;28;20607;-62
2022/12/03 03:47:40;;;;;;;24.27;19.38;;;;;;;2.01;89.09;102196.34;5025308;28;20044;-61
2022/12/03 03:50:07;;;;;;;28.10;18.98;;;;;;;1.52;91.16;102207.09;5029182;28;20049;-62
2022/12/03 03:52:33;;;;;;;22.67;17.05;;;;;;;1.85;89.35;102202.31;5028897;28;20033;-61
2022/12/03 03:54:59;;;;;;;21.33;13.95;;;;;;;1.76;90.84;102195.03;5028199;28;20113;-62
2022/12/03 03:57:24;;;;;;;28.50;19.85;;;;;;;1.68;89.95;102200.31;5007246;28;20080;-61
2022/12/03 03:59:49;;;;;;;26.50;17.90;;;;;;;1.78;90.09;102204.75;5013855;28;20040;-62
2022/12/03 04:02:19;;;;;;;27.05;21.55;;;;;;;1.97;89.64;102203.03;5028965;28;20116;-61
2022/12/03 04:04:45;;;;;;;25.77;18.35;;;;;;;1.78;89.79;102201.19;5026490;28;20475;-61
2022/12/03 04:07:10;;;;;;;21.92;16.60;;;;;;;1.85;89.64;102201.47;5010233;28;20041;-61
2022/12/03 04:09:36;;;;;;;31.02;20.92;;;;;;;1.55;91.33;102197.84;5020600;28;20022;-61
2022/12/03 04:14:45;;;;;;;27.48;17.88;;;;;;;1.44;92.73;102196.09;5029009;28;20507;-62
2022/12/03 04:17:10;;;;;;;24.60;16.80;;;;;;;1.98;89.50;102185.81;5010914;28;20038;-62
2022/12/03 04:19:35;;;;;;;31.08;21.50;;;;;;;1.76;89.73;102192.31;5011487;28;20037;-61
2022/12/03 04:24:44;;;;;;;30.60;20.98;;;;;;;1.83;89.98;102184.50;5027429;28;20400;-61
2022/12/03 04:29:53;;;;;;;28.17;21.80;;;;;;;1.95;89.96;102184.22;5008732;28;20041;-61
2022/12/03 04:37:46;;;;;;;23.25;15.43;;;;;;;1.78;89.95;102190.34;5004530;28;20033;-62
2022/12/03 04:42:56;;;;;;;30.60;22.38;;;;;;;1.36;92.88;102190.50;5022298;28;20087;-61
2022/12/03 04:45:21;;;;;;;22.02;16.35;;;;;;;1.84;90.09;102187.06;5019913;28;20391;-61
2022/12/03 04:47:46;;;;;;;29.35;19.85;;;;;;;1.79;90.14;102187.47;5026904;28;20038;-61
2022/12/03 04:50:12;;;;;;;22.55;16.58;;;;;;;1.87;90.23;102178.63;5028217;28;20025;-62
2022/12/03 04:52:37;;;;;;;27.67;19.38;;;;;;;1.47;92.14;102187.72;5026487;28;20029;-61
2022/12/03 04:55:02;;;;;;;27.40;18.45;;;;;;;1.80;89.99;102188.34;5023173;28;20490;-61
2022/12/03 04:57:28;;;;;;;37.95;33.83;;;;;;;2.28;89.30;102182.06;5013099;28;20109;-61
2022/12/03 04:59:53;;;;;;;26.33;18.17;;;;;;;1.70;90.89;102174.78;5026570;28;20117;-62
2022/12/03 05:02:18;;;;;;;26.13;16.40;;;;;;;1.74;90.68;102183.50;5016117;28;20406;-61
2022/12/03 05:04:44;;;;;;;32.45;21.38;;;;;;;1.66;90.51;102180.63;5016034;28;20056;-61
2022/12/03 05:07:09;;;;;;;33.83;23.63;;;;;;;1.36;92.79;102176.97;5021160;28;20053;-61
2022/12/03 05:09:34;;;;;;;32.95;22.27;;;;;;;1.42;92.93;102179.16;5007522;28;20036;-62
2022/12/03 05:12:00;;;;;;;31.30;21.85;;;;;;;1.34;93.48;102186.25;5008325;28;20024;-63
2022/12/03 05:14:25;;;;;;;35.05;27.25;;;;;;;2.10;89.40;102178.38;5007438;28;20041;-62
2022/12/03 05:16:50;;;;;;;33.45;25.70;;;;;;;2.25;89.06;102176.94;5006328;28;20495;-64
2022/12/03 05:19:15;;;;;;;28.90;19.45;;;;;;;1.50;92.47;102182.00;5008446;28;20057;-61
2022/12/03 05:21:41;;;;;;;31.48;21.40;;;;;;;1.34;93.71;102180.81;5037269;28;20083;-61
2022/12/03 05:24:06;;;;;;;30.10;20.77;;;;;;;1.35;93.78;102183.38;5025647;28;20041;-61
2022/12/03 05:26:31;;;;;;;26.67;19.88;;;;;;;1.91;90.17;102165.69;5014769;28;20021;-61
2022/12/03 05:28:56;;;;;;;24.02;17.77;;;;;;;1.73;92.36;102176.38;5027040;28;20100;-62
2022/12/03 05:31:22;;;;;;;30.77;19.27;;;;;;;2.01;89.76;102166.53;5027254;28;20029;-62
2022/12/03 05:33:47;;;;;;;31.10;20.88;;;;;;;1.44;93.04;102166.31;5024146;28;20026;-61
2022/12/03 05:36:13;;;;;;;29.92;20.60;;;;;;;1.43;94.25;102169.19;5025124;28;20049;-61
2022/12/03 05:38:38;;;;;;;31.80;21.70;;;;;;;1.26;95.26;102171.53;5023869;28;21729;-61
2022/12/03 05:42:52;;;;;;;27.85;18.60;;;;;;;1.32;95.50;102162.03;5024218;28;20065;-62
2022/12/03 05:43:48;;;;;;;32.17;21.65;;;;;;;1.25;95.36;102168.97;5014906;28;20046;-62
2022/12/03 05:46:14;;;;;;;32.15;20.90;;;;;;;1.42;94.06;102167.44;5011647;28;20029;-62
2022/12/03 05:48:39;;;;;;;29.27;21.35;;;;;;;1.27;96.00;102167.00;5011829;28;20068;-61
2022/12/03 05:51:04;;;;;;;30.13;18.98;;;;;;;1.64;93.05;102158.25;5012007;28;20060;-61
2022/12/03 05:53:29;;;;;;;29.88;21.40;;;;;;;1.39;94.58;102152.34;5028994;28;20055;-63
2022/12/03 05:55:55;;;;;;;32.20;21.55;;;;;;;1.45;94.75;102162.63;5015419;28;20030;-61
2022/12/03 05:58:20;;;;;;;31.38;21.52;;;;;;;1.33;95.40;102161.03;5010585;28;20038;-61
2022/12/03 06:00:45;;;;;;;29.40;18.90;;;;;;;1.56;93.37;102161.63;5028588;28;20457;-61
2022/12/03 06:03:10;;;;;;;28.58;20.50;;;;;;;2.02;90.03;102154.69;5017250;28;20033;-61
2022/12/03 06:05:36;;;;;;;38.03;22.55;;;;;;;1.70;91.48;102152.25;5017481;28;20373;-61
2022/12/03 06:08:01;;;;;;;27.48;18.48;;;;;;;1.74;92.20;102154.56;5022315;28;20029;-61
2022/12/03 06:10:27;;;;;;;22.63;13.85;;;;;;;1.55;93.50;102149.94;5028789;28;20037;-62
2022/12/03 06:12:52;;;;;;;32.10;22.25;;;;;;;1.29;94.86;102151.47;5012037;28;20026;-61
2022/12/03 06:15:18;;;;;;;30.52;19.08;;;;;;;1.59;94.41;102150.53;5011128;28;20036;-61
2022/12/03 06:17:44;;;;;;;25.95;20.40;;;;;;;2.13;91.80;102150.97;5011763;28;20097;-61
2022/12/03 06:20:12;;;;;;;23.58;15.95;;;;;;;1.94;91.96;102158.13;5027203;28;20379;-62
2022/12/03 06:22:38;;;;;;;29.67;24.63;;;;;;;2.26;90.24;102157.81;5023901;28;20563;-61
2022/12/03 06:25:03;;;;;;;26.23;22.35;;;;;;;1.83;92.24;102147.44;5015273;28;20029;-61
2022/12/03 06:27:28;;;;;;;30.55;20.67;;;;;;;1.55;94.06;102151.81;5031030;28;20120;-61
2022/12/03 06:29:54;;;;;;;26.70;23.02;;;;;;;1.79;93.01;102149.56;5030748;28;20026;-61
2022/12/03 06:32:19;;;;;;;25.27;16.45;;;;;;;1.70;92.33;102160.38;5030013;28;20443;-61
2022/12/03 06:34:44;;;;;;;27.33;19.40;;;;;;;1.74;92.36;102159.97;5000732;28;20041;-61
2022/12/03 06:37:09;;;;;;;32.10;19.30;;;;;;;1.53;93.72;102157.38;5010204;28;20041;-61
2022/12/03 06:39:35;;;;;;;28.05;16.88;;;;;;;1.42;94.62;102157.50;5009065;28;20538;-61
2022/12/03 06:42:00;;;;;;;26.23;15.15;;;;;;;1.66;92.72;102154.38;5009580;28;20057;-62
2022/12/03 06:44:25;;;;;;;33.08;21.92;;;;;;;1.30;95.42;102156.72;5012714;28;20049;-61
2022/12/03 06:46:51;;;;;;;22.40;16.33;;;;;;;1.71;93.32;102148.56;5030320;28;20037;-63
2022/12/03 06:49:16;;;;;;;31.15;20.92;;;;;;;1.28;95.42;102158.72;5030745;28;20067;-62
2022/12/03 06:51:41;;;;;;;31.25;20.58;;;;;;;1.38;96.00;102145.22;5017698;28;20381;-61
2022/12/03 06:54:06;;;;;;;21.48;16.58;;;;;;;1.76;93.89;102138.16;5008688;28;20315;-61
2022/12/03 06:56:32;;;;;;;26.83;18.85;;;;;;;1.71;93.40;102140.44;5010142;28;20030;-61
2022/12/03 06:58:57;;;;;;;32.70;21.85;;;;;;;1.21;95.94;102146.72;5005107;28;20462;-62
2022/12/03 07:01:23;;;;;;;27.92;20.65;;;;;;;1.80;94.51;102134.16;5016811;28;20501;-61
2022/12/03 07:03:48;;;;;;;28.60;17.15;;;;;;;1.43;94.11;102144.81;5030377;28;20167;-61
2022/12/03 07:06:13;;;;;;;29.58;20.52;;;;;;;1.28;95.25;102142.50;5019349;28;20036;-62
2022/12/03 07:08:39;;;;;;;27.30;19.17;;;;;;;1.32;95.20;102148.50;5028513;28;20030;-61
2022/12/03 07:11:04;;;;;;;25.88;16.55;;;;;;;1.32;95.64;102140.38;5007586;28;20531;-62
2022/12/03 07:13:29;;;;;;;31.17;20.08;;;;;;;1.29;95.36;102146.91;5010191;28;20124;-64
2022/12/03 07:15:55;;;;;;;26.50;17.98;;;;;;;1.44;93.63;102139.25;5010245;28;20188;-61
2022/12/03 07:18:20;;;;;;;33.67;20.45;;;;;;;1.32;95.05;102144.91;5008361;28;20095;-62
2022/12/03 07:20:45;;;;;;;22.58;14.57;;;;;;;1.55;93.23;102146.38;5017848;28;20353;-61
2022/12/03 07:23:10;;;;;;;25.80;21.25;;;;;;;2.08;91.17;102133.31;5008706;28;20033;-62
2022/12/03 07:25:36;;;;;;;23.75;18.67;;;;;;;1.95;90.15;102138.16;5024919;28;20353;-61
2022/12/03 07:28:01;;;;;;;26.35;23.17;;;;;;;2.26;88.50;102135.28;5018904;28;20030;-62
2022/12/03 07:30:26;;;;;;;28.63;20.05;;;;;;;1.39;93.22;102149.63;5028361;28;20029;-62
2022/12/03 07:32:52;;;;;;;22.55;14.43;;;;;;;1.51;92.16;102145.81;5019549;28;20030;-62
2022/12/03 07:35:18;;;;;;;27.10;18.27;;;;;;;1.22;94.47;102139.50;5017983;28;20053;-62
2022/12/03 07:37:43;;;;;;;24.20;16.75;;;;;;;1.76;91.96;102144.41;5025456;28;20026;-62
2022/12/03 07:40:09;;;;;;;25.02;16.13;;;;;;;1.35;93.38;102150.91;5021321;28;20458;-62
2022/12/03 07:42:34;;;;;;;25.98;16.40;;;;;;;1.23;94.68;102154.72;5008764;28;20044;-61
2022/12/03 07:44:59;;;;;;;21.60;14.63;;;;;;;1.92;88.68;102146.56;5009620;28;20025;-63
2022/12/03 07:47:25;;;;;;;25.90;16.70;;;;;;;1.69;90.54;102137.00;5010054;28;20084;-62
2022/12/03 07:49:50;;;;;;;27.83;18.48;;;;;;;1.34;93.14;102151.91;5024790;28;20022;-64
2022/12/03 07:52:15;;;;;;;27.25;16.17;;;;;;;1.45;91.91;102151.78;5011477;28;20026;-62
2022/12/03 07:54:40;;;;;;;23.50;15.68;;;;;;;1.43;92.96;102152.94;5029026;28;20159;-62
2022/12/03 07:57:06;;;;;;;21.63;13.55;;;;;;;1.61;91.29;102153.94;5029373;28;20083;-62
2022/12/03 07:59:31;;;;;;;17.02;12.98;;;;;;;1.73;90.26;102142.00;5029556;28;20487;-62
2022/12/03 08:01:57;;;;;;;24.88;16.17;;;;;;;1.37;93.17;102151.66;5029670;28;20441;-62
2022/12/03 08:04:22;;;;;;;23.73;15.93;;;;;;;1.72;91.56;102152.97;5005677;28;20057;-62
2022/12/03 08:06:47;;;;;;;25.17;16.40;;;;;;;1.68;90.78;102148.84;5009004;28;20038;-62
2022/12/03 08:09:13;;;;;;;29.27;18.40;;;;;;;1.54;91.86;102153.66;5006780;28;20033;-62
2022/12/03 08:11:39;;;;;;;20.15;16.50;;;;;;;1.81;90.51;102149.41;5008288;28;20044;-61
2022/12/03 08:14:12;;;;;;;30.73;21.63;;;;;;;1.97;89.27;102148.84;5008200;28;20033;-62
2022/12/03 08:16:39;;;;;;;24.60;16.20;;;;;;;1.45;92.40;102162.63;5013888;28;20445;-63
2022/12/03 08:19:08;;;;;;;26.88;16.48;;;;;;;1.53;91.79;102153.81;5027677;28;20033;-62
2022/12/03 08:21:35;;;;;;;21.77;13.25;;;;;;;1.68;91.20;102159.69;5021857;28;20032;-62
2022/12/03 08:24:12;;;;;;;28.00;18.23;;;;;;;1.53;92.67;102156.53;5008205;28;20056;-63
2022/12/03 08:26:38;;;;;;;26.45;14.15;;;;;;;1.41;93.86;102161.19;5009160;28;20041;-62
2022/12/03 08:29:08;;;;;;;21.35;13.23;;;;;;;1.61;92.53;102161.22;5008811;28;20025;-61
2022/12/03 08:31:34;;;;;;;26.33;17.55;;;;;;;1.65;92.51;102155.38;5005290;28;20018;-62
2022/12/03 08:34:11;;;;;;;23.40;14.65;;;;;;;1.65;92.12;102151.81;5007089;28;20115;-64
2022/12/03 08:36:36;;;;;;;27.17;17.13;;;;;;;1.55;92.46;102159.94;4987098;28;20046;-62
2022/12/03 08:39:13;;;;;;;24.50;14.88;;;;;;;1.83;92.92;102157.41;4989240;28;20361;-62
2022/12/03 08:44:27;;;;;;;29.67;17.75;;;;;;;1.42;94.33;102159.31;5007847;28;20103;-61
2022/12/03 08:47:05;;;;;;;28.30;15.52;;;;;;;1.63;94.87;102157.41;5006099;28;20081;-61
2022/12/03 08:49:31;;;;;;;28.27;18.33;;;;;;;1.70;92.09;102149.56;5007045;28;20400;-62
2022/12/03 08:51:59;;;;;;;21.60;14.07;;;;;;;1.79;91.06;102148.72;5006920;28;20058;-62
2022/12/03 08:54:24;;;;;;;28.42;16.95;;;;;;;1.53;93.68;102154.66;5007359;28;20030;-61
2022/12/03 08:56:50;;;;;;;33.42;19.90;;;;;;;1.32;94.86;102150.31;5007967;28;20026;-63
2022/12/03 08:59:29;;;;;;;33.00;19.88;;;;;;;1.25;96.20;102161.69;5007056;28;20029;-62
2022/12/03 09:01:56;;;;;;;21.50;15.13;;;;;;;1.47;94.99;102155.22;5008312;28;20030;-62
2022/12/03 09:04:22;;;;;;;29.43;19.20;;;;;;;1.32;95.85;102153.03;5005241;28;20034;-63
2022/12/03 09:06:48;;;;;;;25.23;15.98;;;;;;;1.59;94.50;102144.28;5006662;28;20119;-62
2022/12/03 09:09:13;;;;;;;25.92;15.85;;;;;;;1.48;94.03;102151.53;5007787;28;20054;-62
2022/12/03 09:11:39;;;;;;;31.05;19.25;;;;;;;1.55;91.54;102158.06;5006620;28;20105;-62
2022/12/03 09:14:04;;;;;;;35.13;22.15;;;;;;;1.34;94.32;102156.47;5007236;28;20046;-63
2022/12/03 09:16:29;;;;;;;31.75;21.02;;;;;;;1.33;94.33;102158.31;5007152;28;20488;-64
2022/12/03 09:18:55;;;;;;;32.15;22.10;;;;;;;1.29;94.73;102154.16;5007493;28;20026;-61
2022/12/03 09:21:20;;;;;;;106.15;65.22;;;;;;;1.31;94.92;102160.28;5003555;28;20030;-62
2022/12/03 09:23:45;;;;;;;30.85;19.35;;;;;;;1.47;93.79;102160.66;5006881;28;20030;-62
2022/12/03 09:26:10;;;;;;;39.40;24.08;;;;;;;1.29;94.46;102156.88;5007343;28;20477;-62
2022/12/03 09:28:36;;;;;;;37.97;24.33;;;;;;;1.43;93.86;102153.78;5008314;28;20025;-62
2022/12/03 09:31:01;;;;;;;30.50;18.92;;;;;;;1.39;94.51;102156.91;5007185;28;20033;-62
2022/12/03 09:33:26;;;;;;;35.25;21.80;;;;;;;1.36;94.77;102151.75;5003718;28;20133;-62
2022/12/03 09:35:52;;;;;;;50.20;31.90;;;;;;;1.38;94.75;102147.94;5005221;28;20046;-62
2022/12/03 09:38:17;;;;;;;30.17;20.10;;;;;;;2.21;89.72;102143.00;5006593;28;20038;-62
2022/12/03 09:40:42;;;;;;;34.55;21.35;;;;;;;1.58;91.58;102153.41;5007225;28;20117;-63
2022/12/03 09:43:08;;;;;;;30.77;18.70;;;;;;;1.74;90.46;102141.00;5008026;28;20014;-62
2022/12/03 09:45:33;;;;;;;31.33;19.80;;;;;;;1.40;92.81;102154.06;5005727;28;20377;-62
2022/12/03 09:48:00;;;;;;;33.25;21.35;;;;;;;1.35;93.29;102150.06;5005558;28;20030;-62
2022/12/03 09:50:26;;;;;;;34.30;22.55;;;;;;;2.02;88.67;102144.72;5001425;28;20034;-63
2022/12/03 09:52:53;;;;;;;31.48;19.92;;;;;;;1.51;92.48;102144.97;5004090;28;20029;-62
2022/12/03 09:55:24;;;;;;;31.85;20.77;;;;;;;1.50;93.33;102141.41;4996454;28;20123;-62
2022/12/03 09:57:53;;;;;;;26.20;22.20;;;;;;;2.02;91.58;102127.59;5015544;28;20955;-62
2022/12/03 10:00:22;;;;;;;33.33;19.63;;;;;;;1.47;91.84;102133.56;5003942;28;20050;-62
2022/12/03 10:02:50;;;;;;;25.02;16.10;;;;;;;1.45;92.07;102134.69;5001848;28;20492;-62
2022/12/03 10:05:18;;;;;;;35.78;21.05;;;;;;;1.39;91.49;102122.56;4996409;28;20035;-62
2022/12/03 10:07:43;;;;;;;;;;;;;;;1.70;91.87;102123.31;4991735;28;20043;-63
2022/12/03 10:10:18;;;;;;;36.30;20.57;;;;;;;1.28;93.29;102126.25;4992940;28;19925;-62
2022/12/03 10:12:44;;;;;;;34.95;20.63;;;;;;;1.29;94.08;102138.78;4988705;28;20049;-62
2022/12/03 10:15:14;;;;;;;26.45;15.38;;;;;;;1.72;93.22;102125.88;5003520;28;20030;-61
2022/12/03 10:17:40;;;;;;;29.15;15.77;;;;;;;1.49;91.38;102119.88;5004152;28;20157;-62
2022/12/03 10:20:10;;;;;;;29.38;20.10;;;;;;;1.69;91.53;102118.06;4989084;28;20484;-62
2022/12/03 10:22:36;;;;;;;37.72;22.70;;;;;;;1.32;93.21;102118.72;4997639;28;20038;-61
2022/12/03 10:25:17;;;;;;;37.75;22.92;;;;;;;1.40;94.10;102105.34;4988208;28;20046;-62
2022/12/03 10:27:53;;;;;;;37.78;21.65;;;;;;;1.33;93.48;102115.03;5002569;28;20499;-61
2022/12/03 10:30:22;;;;;;;34.10;20.25;;;;;;;1.36;93.11;102112.00;5025724;28;20034;-61
2022/12/03 10:32:50;;;;;;;33.58;21.23;;;;;;;1.46;94.18;102104.75;5011129;28;20034;-61
2022/12/03 10:35:44;;;;;;;33.25;20.85;;;;;;;1.75;91.89;102095.81;5009508;28;20450;-62
2022/12/03 10:38:16;;;;;;;37.28;22.88;;;;;;;1.37;93.03;102100.22;5009196;28;21082;-61
2022/12/03 10:40:41;;;;;;;34.15;19.10;;;;;;;1.62;91.63;102097.94;5010238;28;20380;-62
2022/12/03 10:43:14;;;;;;;35.90;21.20;;;;;;;1.43;92.09;102094.25;5010759;28;20022;-61
2022/12/03 10:45:40;;;;;;;31.90;19.88;;;;;;;1.28;93.04;102092.94;5009505;28;20022;-62
2022/12/03 10:48:14;;;;;;;30.95;17.95;;;;;;;1.25;93.33;102091.34;5010652;28;20360;-61
2022/12/03 10:51:12;;;;;;;29.00;17.27;;;;;;;1.51;90.54;102082.69;5009284;28;20048;-61
2022/12/03 10:53:39;;;;;;;26.90;16.13;;;;;;;1.24;91.50;102080.66;5010940;28;20029;-61
2022/12/03 10:56:10;;;;;;;24.42;13.23;;;;;;;1.51;89.34;102069.16;5011531;28;20384;-61
2022/12/03 10:58:38;;;;;;;24.73;15.82;;;;;;;1.22;90.94;102077.25;5011571;28;20065;-62
2022/12/03 11:01:33;;;;;;;24.45;14.07;;;;;;;1.46;89.97;102071.44;5010842;28;20048;-62
2022/12/03 11:04:02;;;;;;;24.15;15.98;;;;;;;1.44;89.91;102068.88;5007375;28;20042;-62
2022/12/03 11:06:30;;;;;;;21.48;14.65;;;;;;;1.37;89.66;102062.31;5010174;28;20048;-61
2022/12/03 11:08:56;;;;;;;20.58;13.35;;;;;;;1.37;88.24;102051.50;5009791;28;20404;-61
2022/12/03 11:11:29;;;;;;;20.83;13.82;;;;;;;1.33;88.67;102055.47;5025396;28;20036;-61
2022/12/03 11:13:58;;;;;;;21.48;12.13;;;;;;;1.48;86.95;102064.88;5008106;28;20025;-62
2022/12/03 11:17:04;;;;;;;19.15;13.13;;;;;;;1.89;85.12;102062.88;5010265;28;20133;-62
2022/12/03 11:19:35;;;;;;;21.53;14.00;;;;;;;1.46;85.76;102057.88;5008795;28;20553;-62
2022/12/03 11:22:03;;;;;;;21.80;14.02;;;;;;;1.47;85.87;102056.88;5009230;28;20425;-61
2022/12/03 11:24:34;;;;;;;19.08;12.75;;;;;;;1.53;83.71;102046.38;5009460;28;20096;-61
2022/12/03 11:26:59;;;;;;;20.70;14.50;;;;;;;1.40;85.18;102045.78;5009328;28;20037;-61
2022/12/03 11:29:50;;;;;;;19.53;13.70;;;;;;;1.42;86.23;102046.50;5010802;28;20030;-62
2022/12/03 11:32:54;;;;;;;20.50;13.75;;;;;;;1.68;84.87;102040.53;5010616;28;20312;-62
2022/12/03 11:35:22;;;;;;;15.57;11.55;;;;;;;1.53;84.78;102032.81;5009485;28;20678;-62
2022/12/03 11:37:47;;;;;;;20.20;14.00;;;;;;;1.30;86.78;102036.78;5007456;28;20401;-61
2022/12/03 11:40:15;;;;;;;20.10;14.13;;;;;;;1.72;86.15;102031.94;5009580;28;20030;-62
2022/12/03 11:42:41;;;;;;;20.15;13.18;;;;;;;1.58;84.20;102032.41;5025160;28;20100;-62